WXM80 ListenWXM80 Stop

You find our weather info also at:

UK Metoffice

WeatherCloud

Weather Underground

Northeastern Weather Network

AWEKAS

Citizen Weather Observer Program (CWOP)

HAMweather, WeatherForYou, PWS Weather


Weather Underground History page Text

Daily Summary for January 24, 2017 Units:  Both    English   Metric
« Previous Day
Next Day »
Daily Weekly Monthly Yearly Custom
  High: Low: Average:
Temperature: 39.0 °F /  3.9 °C 37.4 °F /  3 °C 38.1 °F /  3.4 °C
Dew Point: 37.7 °F /  3.2 °C 36.0 °F /  2.2 °C 36.9 °F /  2.7 °C
Humidity: 97 % 91 % 96 %
Wind Speed: 18.9 mph /  30.4 km/h - 8.4 mph /  13.5 km/h
Wind Gust: 32.0 mph /  51.5 km/h - -
Wind:- - SSE
Pressure: 29.44 in /  996.8 hPa 29.24 in /  990.1 hPa -
Precipitation: 0.00 in /  0 mm    
Historical Graphs
 
 
Tabular Data for January 24, 2017
Time Temperature Dew Point Pressure Wind Wind Speed Wind Gust Humidity Rainfall Rate (Hourly)
00:02 37.7 °F /  3.2 °C 36.7 °F /  2.6 °C 29.44 in /  996.8 hPa ENE 16.8 mph /  27 km/h 24.2 mph /  38.9 km/h 96 % 0.11 in /  2.79 mm
00:07 37.8 °F /  3.2 °C 36.8 °F /  2.7 °C 29.44 in /  996.8 hPa ENE 18.3 mph /  29.5 km/h 24.2 mph /  38.9 km/h 96 % 0.11 in /  2.79 mm
00:12 37.8 °F /  3.2 °C 36.8 °F /  2.7 °C 29.43 in /  996.5 hPa East 15.7 mph /  25.3 km/h 23.0 mph /  37 km/h 96 % 0.10 in /  2.54 mm
00:17 37.8 °F /  3.2 °C 36.8 °F /  2.7 °C 29.42 in /  996.2 hPa East 17.7 mph /  28.5 km/h 27.0 mph /  43.5 km/h 96 % 0.10 in /  2.54 mm
00:22 37.8 °F /  3.2 °C 36.8 °F /  2.7 °C 29.43 in /  996.5 hPa NE 15.7 mph /  25.3 km/h 26.5 mph /  42.6 km/h 96 % 0.09 in /  2.29 mm
00:27 37.8 °F /  3.2 °C 36.8 °F /  2.7 °C 29.43 in /  996.5 hPa East 14.6 mph /  23.5 km/h 23.0 mph /  37 km/h 96 % 0.09 in /  2.29 mm
00:32 37.8 °F /  3.2 °C 36.8 °F /  2.7 °C 29.42 in /  996.2 hPa NE 14.3 mph /  23 km/h 25.3 mph /  40.7 km/h 96 % 0.09 in /  2.29 mm
00:37 37.7 °F /  3.2 °C 36.7 °F /  2.6 °C 29.41 in /  995.8 hPa ENE 15.1 mph /  24.3 km/h 24.2 mph /  38.9 km/h 96 % 0.09 in /  2.29 mm
00:42 37.8 °F /  3.2 °C 36.8 °F /  2.7 °C 29.41 in /  995.8 hPa NE 14.8 mph /  23.8 km/h 23.0 mph /  37 km/h 96 % 0.09 in /  2.29 mm
00:47 37.7 °F /  3.2 °C 36.7 °F /  2.6 °C 29.40 in /  995.5 hPa East 17.0 mph /  27.4 km/h 25.3 mph /  40.7 km/h 96 % 0.09 in /  2.29 mm
00:52 37.8 °F /  3.2 °C 36.8 °F /  2.7 °C 29.40 in /  995.5 hPa NE 15.5 mph /  24.9 km/h 19.6 mph /  31.5 km/h 96 % 0.09 in /  2.29 mm
00:58 37.8 °F /  3.2 °C 36.8 °F /  2.7 °C 29.40 in /  995.5 hPa East 14.1 mph /  22.7 km/h 21.0 mph /  33.8 km/h 96 % 0.09 in /  2.29 mm
01:03 37.8 °F /  3.2 °C 36.8 °F /  2.7 °C 29.40 in /  995.5 hPa East 13.1 mph /  21.1 km/h 25.3 mph /  40.7 km/h 96 % 0.09 in /  2.29 mm
01:08 37.9 °F /  3.3 °C 36.9 °F /  2.7 °C 29.40 in /  995.5 hPa NE 13.5 mph /  21.7 km/h 23.0 mph /  37 km/h 96 % 0.09 in /  2.29 mm
01:13 37.9 °F /  3.3 °C 36.9 °F /  2.7 °C 29.40 in /  995.5 hPa NE 16.1 mph /  25.9 km/h 19.6 mph /  31.5 km/h 96 % 0.10 in /  2.54 mm
01:18 37.9 °F /  3.3 °C 36.9 °F /  2.7 °C 29.39 in /  995.1 hPa NE 11.8 mph /  19 km/h 18.4 mph /  29.6 km/h 96 % 0.10 in /  2.54 mm
01:23 38.0 °F /  3.3 °C 37.0 °F /  2.8 °C 29.38 in /  994.8 hPa NE 16.7 mph /  26.9 km/h 24.2 mph /  38.9 km/h 96 % 0.11 in /  2.79 mm
01:28 38.0 °F /  3.3 °C 37.0 °F /  2.8 °C 29.38 in /  994.8 hPa ENE 13.4 mph /  21.6 km/h 23.0 mph /  37 km/h 96 % 0.11 in /  2.79 mm
01:33 38.0 °F /  3.3 °C 37.0 °F /  2.8 °C 29.38 in /  994.8 hPa ENE 14.7 mph /  23.7 km/h 26.5 mph /  42.6 km/h 96 % 0.10 in /  2.54 mm
01:38 38.0 °F /  3.3 °C 37.0 °F /  2.8 °C 29.37 in /  994.5 hPa NE 13.7 mph /  22 km/h 19.6 mph /  31.5 km/h 96 % 0.11 in /  2.79 mm
01:43 38.0 °F /  3.3 °C 37.0 °F /  2.8 °C 29.37 in /  994.5 hPa NE 15.8 mph /  25.4 km/h 23.0 mph /  37 km/h 96 % 0.09 in /  2.29 mm
01:48 37.9 °F /  3.3 °C 36.9 °F /  2.7 °C 29.37 in /  994.5 hPa NE 15.8 mph /  25.4 km/h 24.2 mph /  38.9 km/h 96 % 0.09 in /  2.29 mm
01:53 37.9 °F /  3.3 °C 36.9 °F /  2.7 °C 29.36 in /  994.1 hPa East 17.3 mph /  27.8 km/h 25.0 mph /  40.2 km/h 96 % 0.08 in /  2.03 mm
01:58 37.8 °F /  3.2 °C 36.8 °F /  2.7 °C 29.36 in /  994.1 hPa NE 11.5 mph /  18.5 km/h 21.9 mph /  35.2 km/h 96 % 0.07 in /  1.78 mm
02:03 37.8 °F /  3.2 °C 36.8 °F /  2.7 °C 29.36 in /  994.1 hPa NE 14.6 mph /  23.5 km/h 23.0 mph /  37 km/h 96 % 0.07 in /  1.78 mm
02:08 37.7 °F /  3.2 °C 36.7 °F /  2.6 °C 29.35 in /  993.8 hPa East 12.7 mph /  20.4 km/h 19.6 mph /  31.5 km/h 96 % 0.07 in /  1.78 mm
02:13 37.7 °F /  3.2 °C 36.7 °F /  2.6 °C 29.34 in /  993.5 hPa ENE 13.8 mph /  22.2 km/h 20.7 mph /  33.3 km/h 96 % 0.07 in /  1.78 mm
02:18 37.6 °F /  3.1 °C 36.6 °F /  2.6 °C 29.35 in /  993.8 hPa NE 11.1 mph /  17.9 km/h 19.6 mph /  31.5 km/h 96 % 0.06 in /  1.52 mm
02:23 37.5 °F /  3.1 °C 36.5 °F /  2.5 °C 29.35 in /  993.8 hPa NE 13.2 mph /  21.2 km/h 19.6 mph /  31.5 km/h 96 % 0.06 in /  1.52 mm
02:29 37.5 °F /  3.1 °C 36.5 °F /  2.5 °C 29.35 in /  993.8 hPa ENE 12.5 mph /  20.1 km/h 19.6 mph /  31.5 km/h 96 % 0.07 in /  1.78 mm
02:34 37.6 °F /  3.1 °C 36.6 °F /  2.6 °C 29.36 in /  994.1 hPa ENE 14.4 mph /  23.2 km/h 27.6 mph /  44.4 km/h 96 % 0.06 in /  1.52 mm
02:39 37.6 °F /  3.1 °C 36.6 °F /  2.6 °C 29.36 in /  994.1 hPa ENE 12.0 mph /  19.3 km/h 23.0 mph /  37 km/h 96 % 0.00 in /  0 mm
02:44 37.5 °F /  3.1 °C 36.5 °F /  2.5 °C 29.35 in /  993.8 hPa ENE 15.0 mph /  24.1 km/h 25.0 mph /  40.2 km/h 96 % 0.00 in /  0 mm
02:49 37.6 °F /  3.1 °C 36.6 °F /  2.6 °C 29.34 in /  993.5 hPa ENE 14.0 mph /  22.5 km/h 24.0 mph /  38.6 km/h 96 % 0.00 in /  0 mm
02:54 37.6 °F /  3.1 °C 36.6 °F /  2.6 °C 29.34 in /  993.5 hPa ENE 15.0 mph /  24.1 km/h 26.0 mph /  41.8 km/h 96 % 0.00 in /  0 mm
02:59 37.6 °F /  3.1 °C 36.3 °F /  2.4 °C 29.34 in /  993.5 hPa ENE 18.9 mph /  30.4 km/h 26.5 mph /  42.6 km/h 95 % 0.05 in /  1.27 mm
03:04 37.6 °F /  3.1 °C 36.3 °F /  2.4 °C 29.33 in /  993.1 hPa ENE 16.0 mph /  25.7 km/h 32.0 mph /  51.5 km/h 95 % 0.00 in /  0 mm
03:09 37.5 °F /  3.1 °C 36.2 °F /  2.3 °C 29.33 in /  993.1 hPa NE 12.0 mph /  19.3 km/h 26.0 mph /  41.8 km/h 95 % 0.00 in /  0 mm
03:14 37.5 °F /  3.1 °C 36.5 °F /  2.5 °C 29.33 in /  993.1 hPa NE 14.0 mph /  22.5 km/h 23.0 mph /  37 km/h 96 % 0.00 in /  0 mm
03:19 37.4 °F /  3 °C 36.4 °F /  2.4 °C 29.33 in /  993.1 hPa NE 14.1 mph /  22.7 km/h 23.0 mph /  37 km/h 96 % 0.03 in /  0.76 mm
03:24 37.4 °F /  3 °C 36.4 °F /  2.4 °C 29.33 in /  993.1 hPa NE 12.0 mph /  19.3 km/h 27.0 mph /  43.5 km/h 96 % 0.00 in /  0 mm
03:29 37.4 °F /  3 °C 36.4 °F /  2.4 °C 29.33 in /  993.1 hPa NE 13.0 mph /  20.9 km/h 21.0 mph /  33.8 km/h 96 % 0.00 in /  0 mm
03:34 37.4 °F /  3 °C 36.4 °F /  2.4 °C 29.32 in /  992.8 hPa NE 16.0 mph /  25.7 km/h 26.0 mph /  41.8 km/h 96 % 0.00 in /  0 mm
03:39 37.4 °F /  3 °C 36.4 °F /  2.4 °C 29.32 in /  992.8 hPa ENE 14.0 mph /  22.5 km/h 25.0 mph /  40.2 km/h 96 % 0.00 in /  0 mm
03:44 37.4 °F /  3 °C 36.4 °F /  2.4 °C 29.32 in /  992.8 hPa ENE 14.8 mph /  23.8 km/h 24.2 mph /  38.9 km/h 96 % 0.01 in /  0.25 mm
03:49 37.4 °F /  3 °C 36.4 °F /  2.4 °C 29.32 in /  992.8 hPa ENE 15.7 mph /  25.3 km/h 23.0 mph /  37 km/h 96 % 0.02 in /  0.51 mm
03:54 37.5 °F /  3.1 °C 36.5 °F /  2.5 °C 29.32 in /  992.8 hPa NE 11.3 mph /  18.2 km/h 24.2 mph /  38.9 km/h 96 % 0.02 in /  0.51 mm
03:59 37.5 °F /  3.1 °C 36.5 °F /  2.5 °C 29.32 in /  992.8 hPa NE 13.6 mph /  21.9 km/h 25.3 mph /  40.7 km/h 96 % 0.02 in /  0.51 mm
04:04 37.5 °F /  3.1 °C 36.5 °F /  2.5 °C 29.32 in /  992.8 hPa NE 12.2 mph /  19.6 km/h 17.3 mph /  27.8 km/h 96 % 0.02 in /  0.51 mm
04:09 37.5 °F /  3.1 °C 36.5 °F /  2.5 °C 29.33 in /  993.1 hPa ENE 12.1 mph /  19.5 km/h 18.4 mph /  29.6 km/h 96 % 0.02 in /  0.51 mm
04:14 37.5 °F /  3.1 °C 36.5 °F /  2.5 °C 29.33 in /  993.1 hPa ENE 12.2 mph /  19.6 km/h 19.6 mph /  31.5 km/h 96 % 0.01 in /  0.25 mm
04:19 37.6 °F /  3.1 °C 36.8 °F /  2.7 °C 29.33 in /  993.1 hPa NE 9.5 mph /  15.3 km/h 16.0 mph /  25.7 km/h 97 % 0.01 in /  0.25 mm
04:24 37.6 °F /  3.1 °C 36.8 °F /  2.7 °C 29.33 in /  993.1 hPa NE 11.9 mph /  19.2 km/h 17.3 mph /  27.8 km/h 97 % 0.01 in /  0.25 mm
04:29 37.6 °F /  3.1 °C 36.8 °F /  2.7 °C 29.32 in /  992.8 hPa ENE 10.0 mph /  16.1 km/h 15.0 mph /  24.1 km/h 97 % 0.01 in /  0.25 mm
04:34 37.6 °F /  3.1 °C 36.8 °F /  2.7 °C 29.32 in /  992.8 hPa ENE 11.9 mph /  19.2 km/h 19.0 mph /  30.6 km/h 97 % 0.01 in /  0.25 mm
04:39 37.7 °F /  3.2 °C 36.9 °F /  2.7 °C 29.32 in /  992.8 hPa NE 11.3 mph /  18.2 km/h 19.6 mph /  31.5 km/h 97 % 0.01 in /  0.25 mm
04:44 37.7 °F /  3.2 °C 36.9 °F /  2.7 °C 29.32 in /  992.8 hPa ENE 9.2 mph /  14.8 km/h 14.0 mph /  22.5 km/h 97 % 0.00 in /  0 mm
04:49 37.6 °F /  3.1 °C 36.8 °F /  2.7 °C 29.32 in /  992.8 hPa East 11.9 mph /  19.2 km/h 21.9 mph /  35.2 km/h 97 % 0.00 in /  0 mm
04:55 37.6 °F /  3.1 °C 36.8 °F /  2.7 °C 29.32 in /  992.8 hPa NE 14.6 mph /  23.5 km/h 18.4 mph /  29.6 km/h 97 % 0.00 in /  0 mm
05:00 37.6 °F /  3.1 °C 36.8 °F /  2.7 °C 29.31 in /  992.4 hPa East 12.1 mph /  19.5 km/h 19.0 mph /  30.6 km/h 97 % 0.00 in /  0 mm
05:05 37.6 °F /  3.1 °C 36.8 °F /  2.7 °C 29.31 in /  992.4 hPa NE 16.6 mph /  26.7 km/h 21.9 mph /  35.2 km/h 97 % 0.00 in /  0 mm
05:10 37.6 °F /  3.1 °C 36.8 °F /  2.7 °C 29.31 in /  992.4 hPa NE 11.0 mph /  17.7 km/h 18.0 mph /  29 km/h 97 % 0.00 in /  0 mm
05:15 37.6 °F /  3.1 °C 36.8 °F /  2.7 °C 29.32 in /  992.8 hPa NE 8.3 mph /  13.4 km/h 15.0 mph /  24.1 km/h 97 % 0.00 in /  0 mm
05:20 37.6 °F /  3.1 °C 36.8 °F /  2.7 °C 29.31 in /  992.4 hPa NNE 12.8 mph /  20.6 km/h 19.6 mph /  31.5 km/h 97 % 0.00 in /  0 mm
05:25 37.6 °F /  3.1 °C 36.8 °F /  2.7 °C 29.31 in /  992.4 hPa NNE 10.7 mph /  17.2 km/h 21.9 mph /  35.2 km/h 97 % 0.00 in /  0 mm
05:30 37.7 °F /  3.2 °C 36.9 °F /  2.7 °C 29.32 in /  992.8 hPa NE 8.2 mph /  13.2 km/h 15.0 mph /  24.1 km/h 97 % 0.00 in /  0 mm
05:35 37.7 °F /  3.2 °C 36.9 °F /  2.7 °C 29.32 in /  992.8 hPa NNE 9.0 mph /  14.5 km/h 12.7 mph /  20.4 km/h 97 % 0.00 in /  0 mm
05:40 37.7 °F /  3.2 °C 36.9 °F /  2.7 °C 29.32 in /  992.8 hPa NE 8.9 mph /  14.3 km/h 15.0 mph /  24.1 km/h 97 % 0.00 in /  0 mm
05:45 37.7 °F /  3.2 °C 36.9 °F /  2.7 °C 29.32 in /  992.8 hPa NE 6.7 mph /  10.8 km/h 17.0 mph /  27.4 km/h 97 % 0.00 in /  0 mm
05:50 37.7 °F /  3.2 °C 36.9 °F /  2.7 °C 29.32 in /  992.8 hPa NE 9.2 mph /  14.8 km/h 13.8 mph /  22.2 km/h 97 % 0.00 in /  0 mm
05:55 37.7 °F /  3.2 °C 36.9 °F /  2.7 °C 29.33 in /  993.1 hPa NNE 7.5 mph /  12.1 km/h 13.0 mph /  20.9 km/h 97 % 0.00 in /  0 mm
06:00 37.7 °F /  3.2 °C 36.9 °F /  2.7 °C 29.33 in /  993.1 hPa NNE 8.7 mph /  14 km/h 15.0 mph /  24.1 km/h 97 % 0.00 in /  0 mm
06:05 37.7 °F /  3.2 °C 36.9 °F /  2.7 °C 29.32 in /  992.8 hPa ENE 8.0 mph /  12.9 km/h 8.1 mph /  13 km/h 97 % 0.00 in /  0 mm
06:10 37.7 °F /  3.2 °C 36.9 °F /  2.7 °C 29.32 in /  992.8 hPa NNE 8.3 mph /  13.4 km/h 10.4 mph /  16.7 km/h 97 % 0.00 in /  0 mm
06:15 37.8 °F /  3.2 °C 37.0 °F /  2.8 °C 29.33 in /  993.1 hPa NNE 6.6 mph /  10.6 km/h 11.5 mph /  18.5 km/h 97 % 0.00 in /  0 mm
06:21 37.7 °F /  3.2 °C 36.9 °F /  2.7 °C 29.32 in /  992.8 hPa NNE 7.3 mph /  11.7 km/h 11.5 mph /  18.5 km/h 97 % 0.00 in /  0 mm
06:26 37.8 °F /  3.2 °C 37.0 °F /  2.8 °C 29.32 in /  992.8 hPa ENE 6.7 mph /  10.8 km/h 11.5 mph /  18.5 km/h 97 % 0.00 in /  0 mm
06:31 37.8 °F /  3.2 °C 37.0 °F /  2.8 °C 29.32 in /  992.8 hPa NE 8.0 mph /  12.9 km/h 11.5 mph /  18.5 km/h 97 % 0.00 in /  0 mm
06:36 37.8 °F /  3.2 °C 37.0 °F /  2.8 °C 29.32 in /  992.8 hPa NNE 6.9 mph /  11.1 km/h 13.8 mph /  22.2 km/h 97 % 0.00 in /  0 mm
06:41 37.8 °F /  3.2 °C 37.0 °F /  2.8 °C 29.32 in /  992.8 hPa NE 7.2 mph /  11.6 km/h 11.5 mph /  18.5 km/h 97 % 0.00 in /  0 mm
06:46 37.8 °F /  3.2 °C 37.0 °F /  2.8 °C 29.32 in /  992.8 hPa NE 8.6 mph /  13.8 km/h 18.4 mph /  29.6 km/h 97 % 0.00 in /  0 mm
06:51 37.8 °F /  3.2 °C 37.0 °F /  2.8 °C 29.32 in /  992.8 hPa NNE 7.9 mph /  12.7 km/h 16.1 mph /  25.9 km/h 97 % 0.00 in /  0 mm
06:56 37.8 °F /  3.2 °C 37.0 °F /  2.8 °C 29.33 in /  993.1 hPa NE 8.3 mph /  13.4 km/h 12.7 mph /  20.4 km/h 97 % 0.00 in /  0 mm
07:01 37.8 °F /  3.2 °C 37.0 °F /  2.8 °C 29.32 in /  992.8 hPa NNE 8.3 mph /  13.4 km/h 11.5 mph /  18.5 km/h 97 % 0.00 in /  0 mm
07:06 37.9 °F /  3.3 °C 37.1 °F /  2.8 °C 29.32 in /  992.8 hPa NNE 9.0 mph /  14.5 km/h 18.4 mph /  29.6 km/h 97 % 0.00 in /  0 mm
07:11 37.9 °F /  3.3 °C 37.1 °F /  2.8 °C 29.32 in /  992.8 hPa NNE 9.6 mph /  15.4 km/h 17.3 mph /  27.8 km/h 97 % 0.00 in /  0 mm
07:16 37.9 °F /  3.3 °C 37.1 °F /  2.8 °C 29.32 in /  992.8 hPa NNE 8.7 mph /  14 km/h 13.8 mph /  22.2 km/h 97 % 0.00 in /  0 mm
07:21 37.9 °F /  3.3 °C 37.1 °F /  2.8 °C 29.32 in /  992.8 hPa NNE 8.0 mph /  12.9 km/h 12.0 mph /  19.3 km/h 97 % 0.00 in /  0 mm
07:26 37.9 °F /  3.3 °C 37.1 °F /  2.8 °C 29.31 in /  992.4 hPa NNE 7.5 mph /  12.1 km/h 10.0 mph /  16.1 km/h 97 % 0.00 in /  0 mm
07:31 38.0 °F /  3.3 °C 37.2 °F /  2.9 °C 29.32 in /  992.8 hPa NNE 9.0 mph /  14.5 km/h 11.5 mph /  18.5 km/h 97 % 0.00 in /  0 mm
07:36 38.0 °F /  3.3 °C 37.2 °F /  2.9 °C 29.31 in /  992.4 hPa NE 7.4 mph /  11.9 km/h 15.0 mph /  24.1 km/h 97 % 0.00 in /  0 mm
07:41 38.0 °F /  3.3 °C 37.2 °F /  2.9 °C 29.32 in /  992.8 hPa NE 6.3 mph /  10.1 km/h 12.7 mph /  20.4 km/h 97 % 0.00 in /  0 mm
07:46 38.0 °F /  3.3 °C 37.2 °F /  2.9 °C 29.32 in /  992.8 hPa ENE 7.1 mph /  11.4 km/h 10.0 mph /  16.1 km/h 97 % 0.00 in /  0 mm
07:51 38.0 °F /  3.3 °C 37.2 °F /  2.9 °C 29.32 in /  992.8 hPa NE 9.3 mph /  15 km/h 16.1 mph /  25.9 km/h 97 % 0.00 in /  0 mm
07:57 38.0 °F /  3.3 °C 37.2 °F /  2.9 °C 29.32 in /  992.8 hPa NE 7.2 mph /  11.6 km/h 12.7 mph /  20.4 km/h 97 % 0.00 in /  0 mm
08:02 38.0 °F /  3.3 °C 37.2 °F /  2.9 °C 29.31 in /  992.4 hPa NE 7.3 mph /  11.7 km/h 13.8 mph /  22.2 km/h 97 % 0.00 in /  0 mm
08:07 38.0 °F /  3.3 °C 37.2 °F /  2.9 °C 29.32 in /  992.8 hPa ENE 9.9 mph /  15.9 km/h 16.1 mph /  25.9 km/h 97 % 0.00 in /  0 mm
08:12 38.0 °F /  3.3 °C 37.2 °F /  2.9 °C 29.31 in /  992.4 hPa NNE 6.4 mph /  10.3 km/h 11.5 mph /  18.5 km/h 97 % 0.00 in /  0 mm
08:17 38.0 °F /  3.3 °C 37.2 °F /  2.9 °C 29.31 in /  992.4 hPa NNE 6.9 mph /  11.1 km/h 11.5 mph /  18.5 km/h 97 % 0.00 in /  0 mm
08:22 38.0 °F /  3.3 °C 37.2 °F /  2.9 °C 29.32 in /  992.8 hPa NNE 8.7 mph /  14 km/h 13.0 mph /  20.9 km/h 97 % 0.00 in /  0 mm
08:27 38.0 °F /  3.3 °C 37.2 °F /  2.9 °C 29.32 in /  992.8 hPa NNE 9.0 mph /  14.5 km/h 16.1 mph /  25.9 km/h 97 % 0.00 in /  0 mm
08:32 38.0 °F /  3.3 °C 37.2 °F /  2.9 °C 29.31 in /  992.4 hPa NNE 11.0 mph /  17.7 km/h 13.8 mph /  22.2 km/h 97 % 0.00 in /  0 mm
08:37 37.9 °F /  3.3 °C 37.1 °F /  2.8 °C 29.32 in /  992.8 hPa NE 6.0 mph /  9.7 km/h 9.2 mph /  14.8 km/h 97 % 0.00 in /  0 mm
08:42 38.0 °F /  3.3 °C 37.2 °F /  2.9 °C 29.32 in /  992.8 hPa NNE 6.8 mph /  10.9 km/h 11.0 mph /  17.7 km/h 97 % 0.00 in /  0 mm
08:47 37.9 °F /  3.3 °C 37.1 °F /  2.8 °C 29.32 in /  992.8 hPa NE 7.6 mph /  12.2 km/h 13.8 mph /  22.2 km/h 97 % 0.00 in /  0 mm
08:52 37.9 °F /  3.3 °C 37.1 °F /  2.8 °C 29.32 in /  992.8 hPa NE 7.9 mph /  12.7 km/h 13.8 mph /  22.2 km/h 97 % 0.00 in /  0 mm
08:57 37.9 °F /  3.3 °C 37.1 °F /  2.8 °C 29.32 in /  992.8 hPa North 12.5 mph /  20.1 km/h 16.0 mph /  25.7 km/h 97 % 0.00 in /  0 mm
09:02 37.8 °F /  3.2 °C 37.0 °F /  2.8 °C 29.32 in /  992.8 hPa NE 9.1 mph /  14.6 km/h 14.0 mph /  22.5 km/h 97 % 0.00 in /  0 mm
09:07 37.8 °F /  3.2 °C 37.0 °F /  2.8 °C 29.32 in /  992.8 hPa NNE 12.0 mph /  19.3 km/h 18.4 mph /  29.6 km/h 97 % 0.00 in /  0 mm
09:12 37.8 °F /  3.2 °C 37.0 °F /  2.8 °C 29.33 in /  993.1 hPa NE 9.2 mph /  14.8 km/h 13.8 mph /  22.2 km/h 97 % 0.00 in /  0 mm
09:18 37.9 °F /  3.3 °C 37.1 °F /  2.8 °C 29.32 in /  992.8 hPa NE 7.7 mph /  12.4 km/h 11.5 mph /  18.5 km/h 97 % 0.00 in /  0 mm
09:23 38.0 °F /  3.3 °C 37.2 °F /  2.9 °C 29.32 in /  992.8 hPa NNE 9.2 mph /  14.8 km/h 11.5 mph /  18.5 km/h 97 % 0.00 in /  0 mm
09:28 38.1 °F /  3.4 °C 37.3 °F /  2.9 °C 29.32 in /  992.8 hPa North 5.7 mph /  9.2 km/h 17.3 mph /  27.8 km/h 97 % 0.00 in /  0 mm
09:33 38.1 °F /  3.4 °C 37.3 °F /  2.9 °C 29.32 in /  992.8 hPa NNE 10.4 mph /  16.7 km/h 17.3 mph /  27.8 km/h 97 % 0.00 in /  0 mm
09:38 38.2 °F /  3.4 °C 37.4 °F /  3 °C 29.31 in /  992.4 hPa North 12.2 mph /  19.6 km/h 15.0 mph /  24.1 km/h 97 % 0.00 in /  0 mm
09:43 38.2 °F /  3.4 °C 37.4 °F /  3 °C 29.31 in /  992.4 hPa NNE 8.8 mph /  14.2 km/h 13.8 mph /  22.2 km/h 97 % 0.00 in /  0 mm
09:48 38.3 °F /  3.5 °C 37.5 °F /  3.1 °C 29.32 in /  992.8 hPa North 11.1 mph /  17.9 km/h 19.6 mph /  31.5 km/h 97 % 0.00 in /  0 mm
09:53 38.4 °F /  3.6 °C 37.6 °F /  3.1 °C 29.32 in /  992.8 hPa NE 8.4 mph /  13.5 km/h 13.8 mph /  22.2 km/h 97 % 0.00 in /  0 mm
09:58 38.5 °F /  3.6 °C 37.7 °F /  3.2 °C 29.32 in /  992.8 hPa NNE 12.0 mph /  19.3 km/h 18.4 mph /  29.6 km/h 97 % 0.00 in /  0 mm
10:03 38.4 °F /  3.6 °C 37.6 °F /  3.1 °C 29.32 in /  992.8 hPa NNE 9.2 mph /  14.8 km/h 17.3 mph /  27.8 km/h 97 % 0.00 in /  0 mm
10:08 38.4 °F /  3.6 °C 37.4 °F /  3 °C 29.32 in /  992.8 hPa NNE 10.6 mph /  17.1 km/h 17.3 mph /  27.8 km/h 96 % 0.00 in /  0 mm
10:13 38.4 °F /  3.6 °C 37.4 °F /  3 °C 29.31 in /  992.4 hPa North 10.9 mph /  17.5 km/h 17.3 mph /  27.8 km/h 96 % 0.00 in /  0 mm
10:18 38.4 °F /  3.6 °C 37.4 °F /  3 °C 29.31 in /  992.4 hPa NNE 11.5 mph /  18.5 km/h 13.0 mph /  20.9 km/h 96 % 0.00 in /  0 mm
10:23 38.5 °F /  3.6 °C 37.5 °F /  3.1 °C 29.31 in /  992.4 hPa NNE 10.9 mph /  17.5 km/h 19.6 mph /  31.5 km/h 96 % 0.00 in /  0 mm
10:28 38.5 °F /  3.6 °C 37.5 °F /  3.1 °C 29.31 in /  992.4 hPa NE 9.2 mph /  14.8 km/h 12.0 mph /  19.3 km/h 96 % 0.00 in /  0 mm
10:33 38.5 °F /  3.6 °C 37.5 °F /  3.1 °C 29.31 in /  992.4 hPa NNE 9.9 mph /  15.9 km/h 17.0 mph /  27.4 km/h 96 % 0.00 in /  0 mm
10:38 38.5 °F /  3.6 °C 37.2 °F /  2.9 °C 29.31 in /  992.4 hPa NE 9.5 mph /  15.3 km/h 15.0 mph /  24.1 km/h 95 % 0.00 in /  0 mm
10:43 38.5 °F /  3.6 °C 37.2 °F /  2.9 °C 29.30 in /  992.1 hPa NNE 9.0 mph /  14.5 km/h 13.8 mph /  22.2 km/h 95 % 0.00 in /  0 mm
10:48 38.5 °F /  3.6 °C 37.2 °F /  2.9 °C 29.30 in /  992.1 hPa NE 8.4 mph /  13.5 km/h 13.8 mph /  22.2 km/h 95 % 0.00 in /  0 mm
10:54 38.5 °F /  3.6 °C 37.2 °F /  2.9 °C 29.30 in /  992.1 hPa NE 9.3 mph /  15 km/h 19.6 mph /  31.5 km/h 95 % 0.00 in /  0 mm
10:59 38.5 °F /  3.6 °C 37.2 °F /  2.9 °C 29.30 in /  992.1 hPa NE 11.7 mph /  18.8 km/h 15.0 mph /  24.1 km/h 95 % 0.00 in /  0 mm
11:04 38.5 °F /  3.6 °C 37.2 °F /  2.9 °C 29.30 in /  992.1 hPa NNE 10.0 mph /  16.1 km/h 21.0 mph /  33.8 km/h 95 % 0.00 in /  0 mm
11:09 38.5 °F /  3.6 °C 37.2 °F /  2.9 °C 29.29 in /  991.8 hPa NNE 9.0 mph /  14.5 km/h 20.0 mph /  32.2 km/h 95 % 0.00 in /  0 mm
11:14 38.5 °F /  3.6 °C 37.2 °F /  2.9 °C 29.28 in /  991.4 hPa NNE 9.0 mph /  14.5 km/h 20.0 mph /  32.2 km/h 95 % 0.00 in /  0 mm
11:19 38.5 °F /  3.6 °C 37.2 °F /  2.9 °C 29.28 in /  991.4 hPa NNE 9.0 mph /  14.5 km/h 17.0 mph /  27.4 km/h 95 % 0.00 in /  0 mm
11:24 38.4 °F /  3.6 °C 37.1 °F /  2.8 °C 29.28 in /  991.4 hPa NNE 12.0 mph /  19.3 km/h 15.0 mph /  24.1 km/h 95 % 0.00 in /  0 mm
11:29 38.4 °F /  3.6 °C 37.1 °F /  2.8 °C 29.28 in /  991.4 hPa NNE 9.0 mph /  14.5 km/h 15.0 mph /  24.1 km/h 95 % 0.00 in /  0 mm
11:34 38.5 °F /  3.6 °C 37.2 °F /  2.9 °C 29.28 in /  991.4 hPa NNE 8.9 mph /  14.3 km/h 12.0 mph /  19.3 km/h 95 % 0.01 in /  0.25 mm
11:39 38.6 °F /  3.7 °C 37.3 °F /  2.9 °C 29.28 in /  991.4 hPa NNE 10.0 mph /  16.1 km/h 17.0 mph /  27.4 km/h 95 % 0.00 in /  0 mm
11:44 38.6 °F /  3.7 °C 37.3 °F /  2.9 °C 29.27 in /  991.1 hPa NNE 10.0 mph /  16.1 km/h 16.0 mph /  25.7 km/h 95 % 0.00 in /  0 mm
11:49 38.6 °F /  3.7 °C 37.3 °F /  2.9 °C 29.27 in /  991.1 hPa NNE 10.0 mph /  16.1 km/h 17.0 mph /  27.4 km/h 95 % 0.00 in /  0 mm
11:54 38.6 °F /  3.7 °C 37.3 °F /  2.9 °C 29.27 in /  991.1 hPa NNE 9.0 mph /  14.5 km/h 18.0 mph /  29 km/h 95 % 0.00 in /  0 mm
11:59 38.7 °F /  3.7 °C 37.4 °F /  3 °C 29.26 in /  990.7 hPa NE 12.4 mph /  20 km/h 16.1 mph /  25.9 km/h 95 % 0.01 in /  0.25 mm
12:04 38.7 °F /  3.7 °C 37.4 °F /  3 °C 29.26 in /  990.7 hPa North 10.4 mph /  16.7 km/h 14.0 mph /  22.5 km/h 95 % 0.01 in /  0.25 mm
12:09 38.8 °F /  3.8 °C 37.5 °F /  3.1 °C 29.26 in /  990.7 hPa North 7.0 mph /  11.3 km/h 11.5 mph /  18.5 km/h 95 % 0.01 in /  0.25 mm
12:14 38.8 °F /  3.8 °C 37.5 °F /  3.1 °C 29.26 in /  990.7 hPa NNE 10.3 mph /  16.6 km/h 16.1 mph /  25.9 km/h 95 % 0.01 in /  0.25 mm
12:19 38.9 °F /  3.8 °C 37.6 °F /  3.1 °C 29.25 in /  990.4 hPa NNE 9.5 mph /  15.3 km/h 13.0 mph /  20.9 km/h 95 % 0.00 in /  0 mm
12:24 38.9 °F /  3.8 °C 37.6 °F /  3.1 °C 29.26 in /  990.7 hPa North 8.1 mph /  13 km/h 11.5 mph /  18.5 km/h 95 % 0.00 in /  0 mm
12:29 38.9 °F /  3.8 °C 37.6 °F /  3.1 °C 29.25 in /  990.4 hPa NE 10.2 mph /  16.4 km/h 15.0 mph /  24.1 km/h 95 % 0.00 in /  0 mm
12:34 38.9 °F /  3.8 °C 37.6 °F /  3.1 °C 29.25 in /  990.4 hPa North 7.4 mph /  11.9 km/h 12.7 mph /  20.4 km/h 95 % 0.00 in /  0 mm
12:39 39.0 °F /  3.9 °C 37.7 °F /  3.2 °C 29.26 in /  990.7 hPa North 7.6 mph /  12.2 km/h 12.0 mph /  19.3 km/h 95 % 0.00 in /  0 mm
12:44 39.0 °F /  3.9 °C 37.7 °F /  3.2 °C 29.25 in /  990.4 hPa North 8.1 mph /  13 km/h 11.5 mph /  18.5 km/h 95 % 0.00 in /  0 mm
12:49 39.0 °F /  3.9 °C 37.7 °F /  3.2 °C 29.25 in /  990.4 hPa NNE 7.4 mph /  11.9 km/h 12.7 mph /  20.4 km/h 95 % 0.00 in /  0 mm
12:54 38.9 °F /  3.8 °C 37.6 °F /  3.1 °C 29.25 in /  990.4 hPa NE 7.9 mph /  12.7 km/h 11.5 mph /  18.5 km/h 95 % 0.00 in /  0 mm
12:59 38.9 °F /  3.8 °C 37.6 °F /  3.1 °C 29.25 in /  990.4 hPa North 8.2 mph /  13.2 km/h 11.5 mph /  18.5 km/h 95 % 0.00 in /  0 mm
13:04 38.8 °F /  3.8 °C 37.5 °F /  3.1 °C 29.25 in /  990.4 hPa North 7.2 mph /  11.6 km/h 11.5 mph /  18.5 km/h 95 % 0.00 in /  0 mm
13:10 38.8 °F /  3.8 °C 37.5 °F /  3.1 °C 29.25 in /  990.4 hPa NNE 7.2 mph /  11.6 km/h 12.7 mph /  20.4 km/h 95 % 0.00 in /  0 mm
13:15 38.8 °F /  3.8 °C 37.5 °F /  3.1 °C 29.25 in /  990.4 hPa North 7.4 mph /  11.9 km/h 11.0 mph /  17.7 km/h 95 % 0.00 in /  0 mm
13:20 38.7 °F /  3.7 °C 37.4 °F /  3 °C 29.25 in /  990.4 hPa NNE 9.3 mph /  15 km/h 11.5 mph /  18.5 km/h 95 % 0.00 in /  0 mm
13:25 38.6 °F /  3.7 °C 37.3 °F /  2.9 °C 29.25 in /  990.4 hPa NNE 7.4 mph /  11.9 km/h 11.5 mph /  18.5 km/h 95 % 0.00 in /  0 mm
13:30 38.6 °F /  3.7 °C 37.3 °F /  2.9 °C 29.25 in /  990.4 hPa North 5.0 mph /  8 km/h 8.1 mph /  13 km/h 95 % 0.00 in /  0 mm
13:35 38.6 °F /  3.7 °C 37.3 °F /  2.9 °C 29.25 in /  990.4 hPa NNE 5.8 mph /  9.3 km/h 10.4 mph /  16.7 km/h 95 % 0.00 in /  0 mm
13:40 38.5 °F /  3.6 °C 37.2 °F /  2.9 °C 29.24 in /  990.1 hPa NNW 6.6 mph /  10.6 km/h 14.0 mph /  22.5 km/h 95 % 0.00 in /  0 mm
13:45 38.5 °F /  3.6 °C 37.2 °F /  2.9 °C 29.25 in /  990.4 hPa North 7.3 mph /  11.7 km/h 12.7 mph /  20.4 km/h 95 % 0.00 in /  0 mm
13:50 38.5 °F /  3.6 °C 37.5 °F /  3.1 °C 29.25 in /  990.4 hPa North 7.2 mph /  11.6 km/h 11.5 mph /  18.5 km/h 96 % 0.00 in /  0 mm
13:55 38.6 °F /  3.7 °C 37.6 °F /  3.1 °C 29.25 in /  990.4 hPa NE 7.8 mph /  12.6 km/h 11.5 mph /  18.5 km/h 96 % 0.00 in /  0 mm
14:00 38.5 °F /  3.6 °C 37.5 °F /  3.1 °C 29.25 in /  990.4 hPa NNE 6.8 mph /  10.9 km/h 11.5 mph /  18.5 km/h 96 % 0.00 in /  0 mm
14:05 38.4 °F /  3.6 °C 37.4 °F /  3 °C 29.25 in /  990.4 hPa NNE 7.9 mph /  12.7 km/h 11.5 mph /  18.5 km/h 96 % 0.00 in /  0 mm
14:10 38.4 °F /  3.6 °C 37.4 °F /  3 °C 29.25 in /  990.4 hPa North 9.8 mph /  15.8 km/h 12.7 mph /  20.4 km/h 96 % 0.00 in /  0 mm
14:15 38.3 °F /  3.5 °C 37.3 °F /  2.9 °C 29.25 in /  990.4 hPa NE 9.1 mph /  14.6 km/h 12.7 mph /  20.4 km/h 96 % 0.00 in /  0 mm
14:20 38.3 °F /  3.5 °C 37.3 °F /  2.9 °C 29.25 in /  990.4 hPa NNW 6.1 mph /  9.8 km/h 10.4 mph /  16.7 km/h 96 % 0.00 in /  0 mm
14:25 38.2 °F /  3.4 °C 37.2 °F /  2.9 °C 29.25 in /  990.4 hPa North 6.9 mph /  11.1 km/h 10.0 mph /  16.1 km/h 96 % 0.00 in /  0 mm
14:31 38.2 °F /  3.4 °C 37.2 °F /  2.9 °C 29.25 in /  990.4 hPa NNE 5.6 mph /  9 km/h 11.5 mph /  18.5 km/h 96 % 0.00 in /  0 mm
14:36 38.2 °F /  3.4 °C 37.2 °F /  2.9 °C 29.25 in /  990.4 hPa NNW 7.8 mph /  12.6 km/h 12.0 mph /  19.3 km/h 96 % 0.00 in /  0 mm
14:41 38.2 °F /  3.4 °C 37.2 °F /  2.9 °C 29.25 in /  990.4 hPa NNW 6.5 mph /  10.5 km/h 10.4 mph /  16.7 km/h 96 % 0.00 in /  0 mm
14:46 38.2 °F /  3.4 °C 37.2 °F /  2.9 °C 29.26 in /  990.7 hPa NNE 4.3 mph /  6.9 km/h 10.4 mph /  16.7 km/h 96 % 0.00 in /  0 mm
14:51 38.2 °F /  3.4 °C 37.2 °F /  2.9 °C 29.26 in /  990.7 hPa North 5.5 mph /  8.9 km/h 10.4 mph /  16.7 km/h 96 % 0.00 in /  0 mm
14:56 38.2 °F /  3.4 °C 37.2 °F /  2.9 °C 29.26 in /  990.7 hPa North 4.2 mph /  6.8 km/h 12.7 mph /  20.4 km/h 96 % 0.00 in /  0 mm
15:01 38.2 °F /  3.4 °C 37.2 °F /  2.9 °C 29.26 in /  990.7 hPa North 7.0 mph /  11.3 km/h 10.4 mph /  16.7 km/h 96 % 0.00 in /  0 mm
15:06 38.2 °F /  3.4 °C 37.2 °F /  2.9 °C 29.26 in /  990.7 hPa NW 3.8 mph /  6.1 km/h 9.2 mph /  14.8 km/h 96 % 0.00 in /  0 mm
15:11 38.2 °F /  3.4 °C 37.2 °F /  2.9 °C 29.26 in /  990.7 hPa NNE 4.5 mph /  7.2 km/h 9.2 mph /  14.8 km/h 96 % 0.00 in /  0 mm
15:16 38.2 °F /  3.4 °C 37.2 °F /  2.9 °C 29.26 in /  990.7 hPa North 5.2 mph /  8.4 km/h 8.1 mph /  13 km/h 96 % 0.00 in /  0 mm
15:21 38.1 °F /  3.4 °C 37.1 °F /  2.8 °C 29.26 in /  990.7 hPa NW 4.7 mph /  7.6 km/h 9.2 mph /  14.8 km/h 96 % 0.00 in /  0 mm
15:26 38.1 °F /  3.4 °C 37.1 °F /  2.8 °C 29.26 in /  990.7 hPa NNW 6.4 mph /  10.3 km/h 7.0 mph /  11.3 km/h 96 % 0.01 in /  0.25 mm
15:31 38.1 °F /  3.4 °C 37.1 °F /  2.8 °C 29.26 in /  990.7 hPa North 2.8 mph /  4.5 km/h 9.2 mph /  14.8 km/h 96 % 0.01 in /  0.25 mm
15:36 38.1 °F /  3.4 °C 37.1 °F /  2.8 °C 29.26 in /  990.7 hPa NNE 5.2 mph /  8.4 km/h 11.5 mph /  18.5 km/h 96 % 0.02 in /  0.51 mm
15:42 38.1 °F /  3.4 °C 37.1 °F /  2.8 °C 29.26 in /  990.7 hPa North 6.7 mph /  10.8 km/h 11.5 mph /  18.5 km/h 96 % 0.02 in /  0.51 mm
15:47 38.2 °F /  3.4 °C 37.2 °F /  2.9 °C 29.27 in /  991.1 hPa NNW 6.5 mph /  10.5 km/h 9.0 mph /  14.5 km/h 96 % 0.02 in /  0.51 mm
15:52 38.2 °F /  3.4 °C 37.2 °F /  2.9 °C 29.26 in /  990.7 hPa NNE 6.7 mph /  10.8 km/h 15.0 mph /  24.1 km/h 96 % 0.03 in /  0.76 mm
15:57 38.2 °F /  3.4 °C 37.2 °F /  2.9 °C 29.27 in /  991.1 hPa NNW 6.8 mph /  10.9 km/h 13.8 mph /  22.2 km/h 96 % 0.03 in /  0.76 mm
16:02 38.2 °F /  3.4 °C 37.2 °F /  2.9 °C 29.27 in /  991.1 hPa NNE 4.8 mph /  7.7 km/h 9.2 mph /  14.8 km/h 96 % 0.03 in /  0.76 mm
16:07 38.2 °F /  3.4 °C 37.2 °F /  2.9 °C 29.28 in /  991.4 hPa North 3.3 mph /  5.3 km/h 10.4 mph /  16.7 km/h 96 % 0.03 in /  0.76 mm
16:12 38.2 °F /  3.4 °C 37.2 °F /  2.9 °C 29.28 in /  991.4 hPa NW 6.3 mph /  10.1 km/h 12.7 mph /  20.4 km/h 96 % 0.03 in /  0.76 mm
16:17 38.3 °F /  3.5 °C 37.3 °F /  2.9 °C 29.28 in /  991.4 hPa NNW 4.9 mph /  7.9 km/h 10.4 mph /  16.7 km/h 96 % 0.03 in /  0.76 mm
16:22 38.3 °F /  3.5 °C 37.3 °F /  2.9 °C 29.29 in /  991.8 hPa NNW 4.3 mph /  6.9 km/h 8.1 mph /  13 km/h 96 % 0.03 in /  0.76 mm
16:27 38.2 °F /  3.4 °C 37.2 °F /  2.9 °C 29.29 in /  991.8 hPa NNW 4.3 mph /  6.9 km/h 6.9 mph /  11.1 km/h 96 % 0.03 in /  0.76 mm
16:32 38.2 °F /  3.4 °C 37.2 °F /  2.9 °C 29.29 in /  991.8 hPa NNW 3.9 mph /  6.3 km/h 9.2 mph /  14.8 km/h 96 % 0.03 in /  0.76 mm
16:37 38.1 °F /  3.4 °C 37.1 °F /  2.8 °C 29.29 in /  991.8 hPa NNW 5.4 mph /  8.7 km/h 9.2 mph /  14.8 km/h 96 % 0.03 in /  0.76 mm
16:42 38.0 °F /  3.3 °C 37.0 °F /  2.8 °C 29.29 in /  991.8 hPa North 4.5 mph /  7.2 km/h 8.1 mph /  13 km/h 96 % 0.04 in /  1.02 mm
16:47 38.0 °F /  3.3 °C 37.0 °F /  2.8 °C 29.29 in /  991.8 hPa North 3.5 mph /  5.6 km/h 4.6 mph /  7.4 km/h 96 % 0.04 in /  1.02 mm
16:52 37.9 °F /  3.3 °C 36.9 °F /  2.7 °C 29.29 in /  991.8 hPa NNW 5.3 mph /  8.5 km/h 11.5 mph /  18.5 km/h 96 % 0.04 in /  1.02 mm
16:57 37.9 °F /  3.3 °C 36.9 °F /  2.7 °C 29.30 in /  992.1 hPa NNW 4.9 mph /  7.9 km/h 6.9 mph /  11.1 km/h 96 % 0.04 in /  1.02 mm
17:02 37.8 °F /  3.2 °C 36.8 °F /  2.7 °C 29.29 in /  991.8 hPa NNW 4.3 mph /  6.9 km/h 6.9 mph /  11.1 km/h 96 % 0.05 in /  1.27 mm
17:07 37.7 °F /  3.2 °C 36.7 °F /  2.6 °C 29.30 in /  992.1 hPa NNW 3.6 mph /  5.8 km/h 10.4 mph /  16.7 km/h 96 % 0.05 in /  1.27 mm
17:12 37.7 °F /  3.2 °C 36.7 °F /  2.6 °C 29.30 in /  992.1 hPa NNW 7.9 mph /  12.7 km/h 12.7 mph /  20.4 km/h 96 % 0.05 in /  1.27 mm
17:18 37.7 °F /  3.2 °C 36.7 °F /  2.6 °C 29.30 in /  992.1 hPa NW 4.8 mph /  7.7 km/h 7.0 mph /  11.3 km/h 96 % 0.06 in /  1.52 mm
17:23 37.7 °F /  3.2 °C 36.7 °F /  2.6 °C 29.30 in /  992.1 hPa NNW 5.3 mph /  8.5 km/h 11.5 mph /  18.5 km/h 96 % 0.06 in /  1.52 mm
17:28 37.7 °F /  3.2 °C 36.7 °F /  2.6 °C 29.31 in /  992.4 hPa WNW 4.9 mph /  7.9 km/h 11.5 mph /  18.5 km/h 96 % 0.05 in /  1.27 mm
17:33 37.7 °F /  3.2 °C 36.7 °F /  2.6 °C 29.31 in /  992.4 hPa NNW 7.2 mph /  11.6 km/h 11.5 mph /  18.5 km/h 96 % 0.05 in /  1.27 mm
17:38 37.7 °F /  3.2 °C 36.7 °F /  2.6 °C 29.32 in /  992.8 hPa NNW 6.5 mph /  10.5 km/h 11.5 mph /  18.5 km/h 96 % 0.05 in /  1.27 mm
17:43 37.6 °F /  3.1 °C 36.6 °F /  2.6 °C 29.32 in /  992.8 hPa NNW 3.8 mph /  6.1 km/h 6.9 mph /  11.1 km/h 96 % 0.04 in /  1.02 mm
17:48 37.6 °F /  3.1 °C 36.6 °F /  2.6 °C 29.32 in /  992.8 hPa NW 5.2 mph /  8.4 km/h 10.0 mph /  16.1 km/h 96 % 0.04 in /  1.02 mm
17:53 37.6 °F /  3.1 °C 36.6 °F /  2.6 °C 29.32 in /  992.8 hPa North 6.2 mph /  10 km/h 10.0 mph /  16.1 km/h 96 % 0.04 in /  1.02 mm
17:58 37.6 °F /  3.1 °C 36.6 °F /  2.6 °C 29.33 in /  993.1 hPa NW 5.5 mph /  8.9 km/h 11.5 mph /  18.5 km/h 96 % 0.05 in /  1.27 mm
18:03 37.6 °F /  3.1 °C 36.6 °F /  2.6 °C 29.33 in /  993.1 hPa NW 4.9 mph /  7.9 km/h 10.4 mph /  16.7 km/h 96 % 0.04 in /  1.02 mm
18:08 37.6 °F /  3.1 °C 36.6 °F /  2.6 °C 29.33 in /  993.1 hPa NNW 3.2 mph /  5.1 km/h 5.8 mph /  9.3 km/h 96 % 0.04 in /  1.02 mm
18:13 37.6 °F /  3.1 °C 36.6 °F /  2.6 °C 29.33 in /  993.1 hPa North 7.0 mph /  11.3 km/h 11.5 mph /  18.5 km/h 96 % 0.05 in /  1.27 mm
18:18 37.7 °F /  3.2 °C 36.7 °F /  2.6 °C 29.33 in /  993.1 hPa NW 6.3 mph /  10.1 km/h 11.5 mph /  18.5 km/h 96 % 0.04 in /  1.02 mm
18:23 37.7 °F /  3.2 °C 36.7 °F /  2.6 °C 29.33 in /  993.1 hPa NNW 5.3 mph /  8.5 km/h 12.7 mph /  20.4 km/h 96 % 0.04 in /  1.02 mm
18:28 37.8 °F /  3.2 °C 36.8 °F /  2.7 °C 29.33 in /  993.1 hPa NNW 5.3 mph /  8.5 km/h 10.4 mph /  16.7 km/h 96 % 0.04 in /  1.02 mm
18:34 37.8 °F /  3.2 °C 36.8 °F /  2.7 °C 29.33 in /  993.1 hPa NW 4.7 mph /  7.6 km/h 11.5 mph /  18.5 km/h 96 % 0.04 in /  1.02 mm
18:39 37.8 °F /  3.2 °C 36.8 °F /  2.7 °C 29.33 in /  993.1 hPa NNW 5.6 mph /  9 km/h 11.5 mph /  18.5 km/h 96 % 0.04 in /  1.02 mm
18:44 37.9 °F /  3.3 °C 36.8 °F /  2.7 °C 29.34 in /  993.5 hPa NW 5.0 mph /  8 km/h 8.0 mph /  12.9 km/h 96 % 0.00 in /  0 mm
18:49 37.9 °F /  3.3 °C 36.9 °F /  2.7 °C 29.34 in /  993.5 hPa NW 5.0 mph /  8 km/h 13.0 mph /  20.9 km/h 96 % 0.00 in /  0 mm
18:54 37.9 °F /  3.3 °C 36.9 °F /  2.7 °C 29.34 in /  993.5 hPa NNW 5.7 mph /  9.2 km/h 10.0 mph /  16.1 km/h 96 % 0.04 in /  1.02 mm
18:59 38.0 °F /  3.3 °C 37.0 °F /  2.8 °C 29.34 in /  993.5 hPa NW 4.2 mph /  6.8 km/h 7.0 mph /  11.3 km/h 96 % 0.03 in /  0.76 mm
19:04 38.0 °F /  3.3 °C 37.0 °F /  2.8 °C 29.35 in /  993.8 hPa NNW 3.9 mph /  6.3 km/h 6.9 mph /  11.1 km/h 96 % 0.04 in /  1.02 mm
19:09 38.0 °F /  3.3 °C 37.0 °F /  2.8 °C 29.35 in /  993.8 hPa WNW 5.0 mph /  8 km/h 8.1 mph /  13 km/h 96 % 0.04 in /  1.02 mm
19:14 38.1 °F /  3.4 °C 37.1 °F /  2.8 °C 29.35 in /  993.8 hPa WNW 3.7 mph /  6 km/h 10.4 mph /  16.7 km/h 96 % 0.03 in /  0.76 mm
19:19 38.1 °F /  3.4 °C 37.1 °F /  2.8 °C 29.35 in /  993.8 hPa North 3.8 mph /  6.1 km/h 8.1 mph /  13 km/h 96 % 0.03 in /  0.76 mm
19:24 38.2 °F /  3.4 °C 37.2 °F /  2.9 °C 29.35 in /  993.8 hPa NNW 2.5 mph /  4 km/h 6.9 mph /  11.1 km/h 96 % 0.03 in /  0.76 mm
19:29 38.2 °F /  3.4 °C 37.2 °F /  2.9 °C 29.35 in /  993.8 hPa NW 3.5 mph /  5.6 km/h 10.4 mph /  16.7 km/h 96 % 0.02 in /  0.51 mm
19:34 38.1 °F /  3.4 °C 37.1 °F /  2.8 °C 29.35 in /  993.8 hPa NW 5.2 mph /  8.4 km/h 11.5 mph /  18.5 km/h 96 % 0.02 in /  0.51 mm
19:39 38.1 °F /  3.4 °C 37.1 °F /  2.8 °C 29.35 in /  993.8 hPa NNW 3.4 mph /  5.5 km/h 8.1 mph /  13 km/h 96 % 0.02 in /  0.51 mm
19:45 38.1 °F /  3.4 °C 37.1 °F /  2.8 °C 29.35 in /  993.8 hPa WNW 2.8 mph /  4.5 km/h 4.6 mph /  7.4 km/h 96 % 0.01 in /  0.25 mm
19:49 38.1 °F /  3.4 °C 37.1 °F /  2.8 °C 29.35 in /  993.8 hPa WNW 5.9 mph /  9.5 km/h 9.2 mph /  14.8 km/h 96 % 0.01 in /  0.25 mm
19:54 38.1 °F /  3.4 °C 37.1 °F /  2.8 °C 29.35 in /  993.8 hPa NNW 4.0 mph /  6.4 km/h 7.0 mph /  11.3 km/h 96 % 0.01 in /  0.25 mm
20:00 38.0 °F /  3.3 °C 37.0 °F /  2.8 °C 29.35 in /  993.8 hPa NNW 3.9 mph /  6.3 km/h 10.4 mph /  16.7 km/h 96 % 0.01 in /  0.25 mm
20:05 38.0 °F /  3.3 °C 37.0 °F /  2.8 °C 29.35 in /  993.8 hPa NW 4.6 mph /  7.4 km/h 8.1 mph /  13 km/h 96 % 0.00 in /  0 mm
20:10 38.0 °F /  3.3 °C 36.7 °F /  2.6 °C 29.35 in /  993.8 hPa NNW 5.7 mph /  9.2 km/h 11.0 mph /  17.7 km/h 95 % 0.00 in /  0 mm
20:15 38.0 °F /  3.3 °C 36.7 °F /  2.6 °C 29.34 in /  993.5 hPa WNW 7.3 mph /  11.7 km/h 15.0 mph /  24.1 km/h 95 % 0.00 in /  0 mm
20:20 38.0 °F /  3.3 °C 36.7 °F /  2.6 °C 29.35 in /  993.8 hPa NW 5.6 mph /  9 km/h 11.5 mph /  18.5 km/h 95 % 0.00 in /  0 mm
20:25 38.0 °F /  3.3 °C 36.7 °F /  2.6 °C 29.35 in /  993.8 hPa NNW 5.2 mph /  8.4 km/h 13.8 mph /  22.2 km/h 95 % 0.00 in /  0 mm
20:30 38.1 °F /  3.4 °C 36.8 °F /  2.7 °C 29.35 in /  993.8 hPa WNW 6.2 mph /  10 km/h 11.5 mph /  18.5 km/h 95 % 0.00 in /  0 mm
20:35 38.1 °F /  3.4 °C 36.8 °F /  2.7 °C 29.36 in /  994.1 hPa NW 6.6 mph /  10.6 km/h 13.8 mph /  22.2 km/h 95 % 0.00 in /  0 mm
20:40 38.1 °F /  3.4 °C 36.5 °F /  2.5 °C 29.36 in /  994.1 hPa NW 4.9 mph /  7.9 km/h 11.5 mph /  18.5 km/h 94 % 0.00 in /  0 mm
20:45 38.2 °F /  3.4 °C 36.6 °F /  2.6 °C 29.36 in /  994.1 hPa West 5.0 mph /  8 km/h 10.4 mph /  16.7 km/h 94 % 0.00 in /  0 mm
20:50 38.2 °F /  3.4 °C 36.6 °F /  2.6 °C 29.36 in /  994.1 hPa NW 6.6 mph /  10.6 km/h 11.5 mph /  18.5 km/h 94 % 0.00 in /  0 mm
20:55 38.2 °F /  3.4 °C 36.6 °F /  2.6 °C 29.37 in /  994.5 hPa NNW 7.3 mph /  11.7 km/h 11.5 mph /  18.5 km/h 94 % 0.00 in /  0 mm
21:00 38.2 °F /  3.4 °C 36.4 °F /  2.4 °C 29.37 in /  994.5 hPa NNW 6.1 mph /  9.8 km/h 9.2 mph /  14.8 km/h 93 % 0.00 in /  0 mm
21:05 38.3 °F /  3.5 °C 36.5 °F /  2.5 °C 29.37 in /  994.5 hPa NW 3.8 mph /  6.1 km/h 9.2 mph /  14.8 km/h 93 % 0.00 in /  0 mm
21:10 38.3 °F /  3.5 °C 36.5 °F /  2.5 °C 29.37 in /  994.5 hPa NNW 4.3 mph /  6.9 km/h 12.7 mph /  20.4 km/h 93 % 0.00 in /  0 mm
21:16 38.3 °F /  3.5 °C 36.5 °F /  2.5 °C 29.38 in /  994.8 hPa North 7.6 mph /  12.2 km/h 11.5 mph /  18.5 km/h 93 % 0.00 in /  0 mm
21:21 38.4 °F /  3.6 °C 36.3 °F /  2.4 °C 29.38 in /  994.8 hPa NNW 5.9 mph /  9.5 km/h 9.2 mph /  14.8 km/h 92 % 0.00 in /  0 mm
21:26 38.4 °F /  3.6 °C 36.3 °F /  2.4 °C 29.38 in /  994.8 hPa NNW 6.7 mph /  10.8 km/h 9.2 mph /  14.8 km/h 92 % 0.00 in /  0 mm
21:31 38.4 °F /  3.6 °C 36.3 °F /  2.4 °C 29.38 in /  994.8 hPa NW 3.7 mph /  6 km/h 10.4 mph /  16.7 km/h 92 % 0.00 in /  0 mm
21:37 38.5 °F /  3.6 °C 36.4 °F /  2.4 °C 29.38 in /  994.8 hPa NW 6.6 mph /  10.6 km/h 11.5 mph /  18.5 km/h 92 % 0.00 in /  0 mm
21:42 38.5 °F /  3.6 °C 36.1 °F /  2.3 °C 29.38 in /  994.8 hPa WNW 5.3 mph /  8.5 km/h 10.4 mph /  16.7 km/h 91 % 0.00 in /  0 mm
21:47 38.6 °F /  3.7 °C 36.2 °F /  2.3 °C 29.38 in /  994.8 hPa NNW 5.0 mph /  8 km/h 8.1 mph /  13 km/h 91 % 0.00 in /  0 mm
21:52 38.6 °F /  3.7 °C 36.2 °F /  2.3 °C 29.38 in /  994.8 hPa NW 4.3 mph /  6.9 km/h 9.2 mph /  14.8 km/h 91 % 0.00 in /  0 mm
21:57 38.7 °F /  3.7 °C 36.3 °F /  2.4 °C 29.37 in /  994.5 hPa NW 3.6 mph /  5.8 km/h 9.0 mph /  14.5 km/h 91 % 0.00 in /  0 mm
22:02 38.8 °F /  3.8 °C 36.4 °F /  2.4 °C 29.37 in /  994.5 hPa NNW 7.8 mph /  12.6 km/h 11.5 mph /  18.5 km/h 91 % 0.00 in /  0 mm
22:07 38.8 °F /  3.8 °C 36.4 °F /  2.4 °C 29.37 in /  994.5 hPa West 2.9 mph /  4.7 km/h 5.8 mph /  9.3 km/h 91 % 0.00 in /  0 mm
22:12 38.8 °F /  3.8 °C 36.4 °F /  2.4 °C 29.37 in /  994.5 hPa NW 8.8 mph /  14.2 km/h 15.0 mph /  24.1 km/h 91 % 0.00 in /  0 mm
22:17 38.8 °F /  3.8 °C 36.4 °F /  2.4 °C 29.37 in /  994.5 hPa NNW 8.9 mph /  14.3 km/h 13.8 mph /  22.2 km/h 91 % 0.00 in /  0 mm
22:22 38.9 °F /  3.8 °C 36.5 °F /  2.5 °C 29.37 in /  994.5 hPa NNW 4.7 mph /  7.6 km/h 9.2 mph /  14.8 km/h 91 % 0.00 in /  0 mm
22:27 38.9 °F /  3.8 °C 36.5 °F /  2.5 °C 29.38 in /  994.8 hPa NW 6.9 mph /  11.1 km/h 10.4 mph /  16.7 km/h 91 % 0.00 in /  0 mm
22:32 38.9 °F /  3.8 °C 36.5 °F /  2.5 °C 29.38 in /  994.8 hPa NW 7.7 mph /  12.4 km/h 9.2 mph /  14.8 km/h 91 % 0.00 in /  0 mm
22:37 38.9 °F /  3.8 °C 36.5 °F /  2.5 °C 29.37 in /  994.5 hPa WNW 6.8 mph /  10.9 km/h 11.5 mph /  18.5 km/h 91 % 0.00 in /  0 mm
22:42 38.9 °F /  3.8 °C 36.5 °F /  2.5 °C 29.38 in /  994.8 hPa WNW 7.2 mph /  11.6 km/h 13.8 mph /  22.2 km/h 91 % 0.00 in /  0 mm
22:48 38.9 °F /  3.8 °C 36.5 °F /  2.5 °C 29.38 in /  994.8 hPa NW 5.5 mph /  8.9 km/h 10.0 mph /  16.1 km/h 91 % 0.00 in /  0 mm
22:53 38.9 °F /  3.8 °C 36.5 °F /  2.5 °C 29.38 in /  994.8 hPa NNW 6.1 mph /  9.8 km/h 13.8 mph /  22.2 km/h 91 % 0.00 in /  0 mm
22:58 38.9 °F /  3.8 °C 36.5 °F /  2.5 °C 29.38 in /  994.8 hPa NW 4.1 mph /  6.6 km/h 11.5 mph /  18.5 km/h 91 % 0.00 in /  0 mm
23:03 38.8 °F /  3.8 °C 36.4 °F /  2.4 °C 29.38 in /  994.8 hPa WNW 6.6 mph /  10.6 km/h 11.5 mph /  18.5 km/h 91 % 0.00 in /  0 mm
23:08 38.8 °F /  3.8 °C 36.4 °F /  2.4 °C 29.39 in /  995.1 hPa WNW 5.4 mph /  8.7 km/h 11.5 mph /  18.5 km/h 91 % 0.00 in /  0 mm
23:09 38.8 °F /  3.8 °C 36.4 °F /  2.4 °C 29.39 in /  995.1 hPa WNW 3.3 mph /  5.3 km/h 9.2 mph /  14.8 km/h 91 % 0.00 in /  0 mm
23:14 38.8 °F /  3.8 °C 36.4 °F /  2.4 °C 29.39 in /  995.1 hPa NW 4.8 mph /  7.7 km/h 11.5 mph /  18.5 km/h 91 % 0.00 in /  0 mm
23:19 38.7 °F /  3.7 °C 36.3 °F /  2.4 °C 29.39 in /  995.1 hPa WNW 3.4 mph /  5.5 km/h 11.5 mph /  18.5 km/h 91 % 0.00 in /  0 mm
23:24 38.7 °F /  3.7 °C 36.6 °F /  2.6 °C 29.39 in /  995.1 hPa WNW 4.8 mph /  7.7 km/h 9.0 mph /  14.5 km/h 92 % 0.00 in /  0 mm
23:29 38.6 °F /  3.7 °C 36.2 °F /  2.3 °C 29.39 in /  995.1 hPa West 4.8 mph /  7.7 km/h 8.1 mph /  13 km/h 91 % 0.00 in /  0 mm
23:34 38.5 °F /  3.6 °C 36.1 °F /  2.3 °C 29.39 in /  995.1 hPa WSW 4.7 mph /  7.6 km/h 8.1 mph /  13 km/h 91 % 0.00 in /  0 mm
23:39 38.5 °F /  3.6 °C 36.4 °F /  2.4 °C 29.38 in /  994.8 hPa WNW 6.1 mph /  9.8 km/h 11.5 mph /  18.5 km/h 92 % 0.00 in /  0 mm
23:44 38.4 °F /  3.6 °C 36.0 °F /  2.2 °C 29.39 in /  995.1 hPa WNW 2.1 mph /  3.4 km/h 5.8 mph /  9.3 km/h 91 % 0.00 in /  0 mm
23:49 38.4 °F /  3.6 °C 36.0 °F /  2.2 °C 29.39 in /  995.1 hPa WNW 4.0 mph /  6.4 km/h 6.9 mph /  11.1 km/h 91 % 0.00 in /  0 mm
23:54 38.4 °F /  3.6 °C 36.0 °F /  2.2 °C 29.39 in /  995.1 hPa WNW 4.1 mph /  6.6 km/h 8.1 mph /  13 km/h 91 % 0.00 in /  0 mm
23:59 38.4 °F /  3.6 °C 36.0 °F /  2.2 °C 29.39 in /  995.1 hPa WNW 4.5 mph /  7.2 km/h 11.5 mph /  18.5 km/h 91 % 0.00 in /  0 mm
Crab Meadow Weather
Compliments of Weather Underground - 3 mb

Script developed by  Jim McMurry - jmcmurry@mwt.net Adapted for the template by  Wim van der Kuil - Leuven-Template.eu

Astronomy: It takes 16 million horsepower to break loose from the Earth's gravitational pull.